Time;durP1;ratioP1;P1;durP2;ratioP2;P2;SDS_P1;SDS_P2;PMS_P1;PMS_P2;Temp;Humidity;BMP_temperature;BMP_pressure;BME280_temperature;BME280_humidity;BME280_pressure;Samples;Min_cycle;Max_cycle;Signal;HPM_P1;HPM_P2
2022/11/09 00:01:22;;;;;;;;;;;;;;;7.01;87.09;100549.27;116080;1299;22444;-70
2022/11/09 00:04:12;;;;;;;;;;;;;;;6.93;87.28;100549.77;116086;1300;25405;-69
2022/11/09 00:07:00;;;;;;;;;;;;;;;6.88;87.38;100546.73;116050;1307;22437;-69
2022/11/09 00:09:54;;;;;;;;;;;;;;;6.86;87.47;100544.02;116022;1296;22404;-68
2022/11/09 00:12:43;;;;;;;;;;;;;;;6.88;87.85;100537.73;116021;1307;22455;-69
2022/11/09 00:15:32;;;;;;;;;;;;;;;6.94;88.37;100538.13;116061;1293;22435;-69
2022/11/09 00:18:20;;;;;;;;;;;;;;;7.02;88.57;100542.98;116055;1307;22893;-69
2022/11/09 00:21:12;;;;;;;;;;;;;;;7.08;88.66;100541.83;116046;1307;22469;-70
2022/11/09 00:24:00;;;;;;;;;;;;;;;7.13;88.83;100539.81;116079;1285;22441;-69
2022/11/09 00:26:50;;;;;;;;;;;;;;;7.17;88.80;100544.42;116031;1286;22455;-68
2022/11/09 00:29:40;;;;;;;;;;;;;;;7.23;88.59;100544.11;116057;1296;22824;-68
2022/11/09 00:32:30;;;;;;;;;;;;;;;7.27;88.32;100540.91;116022;1307;22473;-71
2022/11/09 00:35:22;;;;;;;;;;;;;;;7.29;88.19;100534.79;116087;1307;22617;-67
2022/11/09 00:38:12;;;;;;;;;;;;;;;7.33;88.61;100537.15;116016;1307;22440;-68
2022/11/09 00:41:06;;;;;;;;;;;;;;;7.33;88.40;100533.81;116088;1284;24285;-68
2022/11/09 00:43:56;;;;;;;;;;;;;;;7.31;88.22;100532.49;116040;1287;22448;-68
2022/11/09 00:46:53;;;;;;;;;;;;;;;7.28;88.39;100533.77;116060;1308;25359;-68
2022/11/09 00:49:41;;;;;;;;;;;;;;;7.28;88.26;100536.21;116089;1305;22398;-68
2022/11/09 00:52:32;;;;;;;;;;;;;;;7.31;88.30;100531.81;116033;1307;22516;-68
2022/11/09 00:55:22;;;;;;;;;;;;;;;7.36;88.28;100528.75;116087;1287;22446;-69
2022/11/09 00:58:13;;;;;;;;;;;;;;;7.40;88.32;100532.98;115677;1307;528673;-68
2022/11/09 01:01:10;;;;;;;;;;;;;;;7.43;88.44;100528.59;116108;1287;24220;-68
2022/11/09 01:03:59;;;;;;;;;;;;;;;7.41;88.18;100525.86;116037;1307;23109;-68
2022/11/09 01:06:46;;;;;;;;;;;;;;;7.39;88.12;100524.84;116080;1307;22631;-67
2022/11/09 01:09:39;;;;;;;;;;;;;;;7.36;88.16;100523.35;116078;1306;22457;-67
2022/11/09 01:12:29;;;;;;;;;;;;;;;7.37;88.08;100526.29;116054;1305;24416;-69
2022/11/09 01:15:17;;;;;;;;;;;;;;;7.39;88.31;100529.70;116035;1307;25860;-68
2022/11/09 01:18:07;;;;;;;;;;;;;;;7.44;88.30;100529.77;116038;1282;22446;-69
2022/11/09 01:20:56;;;;;;;;;;;;;;;7.47;88.33;100531.27;116034;1294;22433;-68
2022/11/09 01:23:43;;;;;;;;;;;;;;;7.49;88.20;100528.10;115927;1307;22482;-68
2022/11/09 01:26:33;;;;;;;;;;;;;;;7.48;88.17;100529.32;116068;1300;22571;-68
2022/11/09 01:29:23;;;;;;;;;;;;;;;7.46;88.06;100527.30;116046;1285;22459;-68
2022/11/09 01:32:11;;;;;;;;;;;;;;;7.44;87.97;100523.70;116040;1302;22569;-69
2022/11/09 01:35:02;;;;;;;;;;;;;;;7.44;87.83;100522.84;116059;1295;22438;-70
2022/11/09 01:37:49;;;;;;;;;;;;;;;7.46;87.96;100526.25;116070;1302;22396;-68
2022/11/09 01:40:41;;;;;;;;;;;;;;;7.50;87.92;100522.54;116062;1296;22549;-70
2022/11/09 01:43:31;;;;;;;;;;;;;;;7.50;87.95;100519.91;116022;1307;22462;-70
2022/11/09 01:46:21;;;;;;;;;;;;;;;7.50;87.89;100517.66;116079;1307;22457;-69
2022/11/09 01:49:15;;;;;;;;;;;;;;;7.46;87.87;100513.76;116046;1287;25335;-70
2022/11/09 01:52:08;;;;;;;;;;;;;;;7.43;87.59;100512.61;116067;1292;22446;-67
2022/11/09 01:54:58;;;;;;;;;;;;;;;7.41;87.51;100514.57;116060;1308;25905;-69
2022/11/09 01:57:50;;;;;;;;;;;;;;;7.38;87.51;100506.48;116024;1307;24244;-68
2022/11/09 02:00:38;;;;;;;;;;;;;;;7.36;87.72;100502.88;116034;1287;22447;-68
2022/11/09 02:03:28;;;;;;;;;;;;;;;7.35;87.79;100503.44;116021;1300;22615;-69
2022/11/09 02:06:20;;;;;;;;;;;;;;;7.32;87.74;100501.39;116040;1297;22440;-68
2022/11/09 02:09:12;;;;;;;;;;;;;;;7.29;87.74;100502.88;116027;1300;22904;-69
2022/11/09 02:12:02;;;;;;;;;;;;;;;7.23;87.62;100501.44;116046;1307;22465;-68
2022/11/09 02:14:50;;;;;;;;;;;;;;;7.19;87.70;100502.22;116049;1287;22520;-67
2022/11/09 02:17:39;;;;;;;;;;;;;;;7.18;87.78;100499.80;116034;1290;25388;-70
2022/11/09 02:20:30;;;;;;;;;;;;;;;7.18;88.01;100496.85;116074;1287;22445;-69
2022/11/09 02:23:18;;;;;;;;;;;;;;;7.19;87.97;100495.45;116037;1307;22497;-69
2022/11/09 02:26:12;;;;;;;;;;;;;;;7.19;87.84;100492.85;116067;1307;22423;-69
2022/11/09 02:29:06;;;;;;;;;;;;;;;7.15;87.78;100489.12;116057;1299;22479;-70
2022/11/09 02:31:55;;;;;;;;;;;;;;;7.08;87.65;100485.48;116037;1300;22544;-68
2022/11/09 02:34:45;;;;;;;;;;;;;;;7.01;87.71;100488.55;116090;1289;25435;-68
2022/11/09 02:37:37;;;;;;;;;;;;;;;6.93;87.66;100483.88;116042;1307;22453;-69
2022/11/09 02:40:32;;;;;;;;;;;;;;;6.86;87.77;100478.47;116031;1284;22529;-70
2022/11/09 02:43:19;;;;;;;;;;;;;;;6.79;88.03;100479.30;116068;1292;22471;-69
2022/11/09 02:46:11;;;;;;;;;;;;;;;6.76;88.09;100481.10;116061;1286;25246;-69
2022/11/09 02:49:01;;;;;;;;;;;;;;;6.75;88.13;100487.37;116036;1307;22465;-69
2022/11/09 02:51:49;;;;;;;;;;;;;;;6.77;88.27;100485.59;116043;1300;22452;-68
2022/11/09 02:54:39;;;;;;;;;;;;;;;6.80;88.68;100484.65;116048;1307;24236;-69
2022/11/09 02:57:26;;;;;;;;;;;;;;;6.83;88.79;100482.88;116045;1307;22903;-68
2022/11/09 03:00:18;;;;;;;;;;;;;;;6.84;88.63;100490.30;116050;1295;22687;-69
2022/11/09 03:03:08;;;;;;;;;;;;;;;6.86;88.61;100493.23;116043;1302;25890;-68
2022/11/09 03:05:56;;;;;;;;;;;;;;;6.84;88.62;100494.64;116078;1286;22930;-68
2022/11/09 03:08:46;;;;;;;;;;;;;;;6.80;88.56;100492.81;116093;1296;22447;-68
2022/11/09 03:11:34;;;;;;;;;;;;;;;6.75;88.53;100497.26;116043;1286;22430;-69
2022/11/09 03:14:21;;;;;;;;;;;;;;;6.70;88.48;100494.23;116055;1307;22559;-69
2022/11/09 03:17:15;;;;;;;;;;;;;;;6.69;88.73;100495.63;116036;1280;22458;-67
2022/11/09 03:20:03;;;;;;;;;;;;;;;6.70;88.72;100495.44;116069;1285;22456;-71
2022/11/09 03:22:50;;;;;;;;;;;;;;;6.75;88.80;100499.34;116052;1287;22977;-70
2022/11/09 03:25:39;;;;;;;;;;;;;;;6.78;88.94;100500.49;116094;1307;24880;-70
2022/11/09 03:28:27;;;;;;;;;;;;;;;6.79;89.01;100502.02;116045;1307;22600;-70
2022/11/09 03:31:14;;;;;;;;;;;;;;;6.79;89.05;100499.92;116052;1307;22453;-69
2022/11/09 03:34:01;;;;;;;;;;;;;;;6.80;89.07;100497.84;116029;1289;25356;-68
2022/11/09 03:36:49;;;;;;;;;;;;;;;6.78;88.87;100502.91;116040;1291;22464;-68
2022/11/09 03:39:39;;;;;;;;;;;;;;;6.75;89.26;100503.31;116017;1290;22519;-68
2022/11/09 03:42:29;;;;;;;;;;;;;;;6.71;88.96;100500.80;116024;1288;22658;-68
2022/11/09 03:45:20;;;;;;;;;;;;;;;6.70;89.06;100500.65;116057;1287;22498;-68
2022/11/09 03:48:10;;;;;;;;;;;;;;;6.72;89.17;100496.27;116056;1307;22459;-68
2022/11/09 03:50:58;;;;;;;;;;;;;;;6.76;89.05;100496.18;116097;1277;22460;-69
2022/11/09 03:53:49;;;;;;;;;;;;;;;6.82;89.33;100488.96;116045;1287;25364;-70
2022/11/09 03:56:37;;;;;;;;;;;;;;;6.84;89.31;100483.02;116085;1307;24397;-69
2022/11/09 03:59:24;;;;;;;;;;;;;;;6.86;89.52;100477.45;116094;1301;22421;-68
2022/11/09 04:02:17;;;;;;;;;;;;;;;6.86;89.20;100484.20;116063;1287;22464;-68
2022/11/09 04:05:05;;;;;;;;;;;;;;;6.85;89.12;100486.13;116097;1307;22391;-69
2022/11/09 04:07:58;;;;;;;;;;;;;;;6.81;89.00;100475.45;116073;1307;24400;-69
2022/11/09 04:10:46;;;;;;;;;;;;;;;6.81;89.22;100477.71;116039;1293;22439;-68
2022/11/09 04:13:35;;;;;;;;;;;;;;;6.82;88.79;100481.17;116022;1303;22698;-67
2022/11/09 04:16:22;;;;;;;;;;;;;;;6.82;89.03;100478.55;116060;1307;22520;-68
2022/11/09 04:19:10;;;;;;;;;;;;;;;6.83;89.08;100479.55;116047;1300;25230;-67
2022/11/09 04:21:58;;;;;;;;;;;;;;;6.83;88.91;100477.31;116061;1300;22435;-68
2022/11/09 04:24:50;;;;;;;;;;;;;;;6.81;88.81;100476.33;116047;1287;22597;-69
2022/11/09 04:27:40;;;;;;;;;;;;;;;6.76;88.82;100473.83;116014;1289;22458;-68
2022/11/09 04:30:28;;;;;;;;;;;;;;;6.71;88.86;100468.90;116077;1307;22466;-69
2022/11/09 04:33:19;;;;;;;;;;;;;;;6.68;88.66;100471.38;116006;1295;22445;-69
2022/11/09 04:36:08;;;;;;;;;;;;;;;6.65;88.75;100472.66;116040;1292;22683;-69
2022/11/09 04:38:55;;;;;;;;;;;;;;;6.66;89.21;100472.30;116027;1290;24240;-68
2022/11/09 04:41:43;;;;;;;;;;;;;;;6.66;89.08;100469.00;116038;1307;22531;-69
2022/11/09 04:44:33;;;;;;;;;;;;;;;6.65;89.17;100469.71;116054;1296;23836;-69
2022/11/09 04:47:22;;;;;;;;;;;;;;;6.63;89.31;100467.67;116065;1307;23519;-69
2022/11/09 04:50:13;;;;;;;;;;;;;;;6.60;89.37;100468.95;116088;1275;22457;-70
2022/11/09 04:53:08;;;;;;;;;;;;;;;6.56;89.25;100468.00;116048;1307;24271;-70
2022/11/09 04:55:55;;;;;;;;;;;;;;;6.49;89.29;100470.20;116110;1296;25405;-69
2022/11/09 04:58:42;;;;;;;;;;;;;;;6.48;89.45;100470.23;116056;1307;22445;-69
2022/11/09 05:01:33;;;;;;;;;;;;;;;6.50;89.53;100470.88;116086;1277;22457;-68
2022/11/09 05:04:21;;;;;;;;;;;;;;;6.53;89.72;100475.16;116089;1287;22449;-68
2022/11/09 05:07:08;;;;;;;;;;;;;;;6.56;89.78;100469.39;116037;1307;22461;-70
2022/11/09 05:09:58;;;;;;;;;;;;;;;6.57;89.77;100467.27;116053;1289;22507;-68
2022/11/09 05:12:45;;;;;;;;;;;;;;;6.56;89.81;100467.48;116010;1303;22474;-68
2022/11/09 05:15:34;;;;;;;;;;;;;;;6.53;89.79;100467.17;115940;1290;22452;-70
2022/11/09 05:18:22;;;;;;;;;;;;;;;6.49;89.84;100470.90;116026;1289;22450;-71
2022/11/09 05:21:11;;;;;;;;;;;;;;;6.46;89.56;100471.66;116097;1293;22449;-70
2022/11/09 05:24:01;;;;;;;;;;;;;;;6.45;89.59;100471.31;116073;1299;22482;-68
2022/11/09 05:26:54;;;;;;;;;;;;;;;6.45;89.68;100467.34;116064;1299;22486;-69
2022/11/09 05:29:44;;;;;;;;;;;;;;;6.46;89.98;100473.73;116096;1307;22525;-69
2022/11/09 05:32:32;;;;;;;;;;;;;;;6.48;90.02;100471.61;116073;1284;22525;-70
2022/11/09 05:35:22;;;;;;;;;;;;;;;6.49;90.07;100474.52;116124;1305;22405;-69
2022/11/09 05:38:10;;;;;;;;;;;;;;;6.46;89.94;100476.16;116087;1307;22460;-68
2022/11/09 05:40:57;;;;;;;;;;;;;;;6.42;89.68;100482.47;116115;1291;22458;-68
2022/11/09 05:43:45;;;;;;;;;;;;;;;6.35;89.64;100481.91;116081;1296;22449;-70
2022/11/09 05:46:33;;;;;;;;;;;;;;;6.28;89.59;100479.96;116097;1286;22535;-70
2022/11/09 05:49:20;;;;;;;;;;;;;;;6.26;89.74;100479.33;116084;1290;22525;-68
2022/11/09 05:52:07;;;;;;;;;;;;;;;6.28;90.03;100478.93;116021;1290;22445;-68
2022/11/09 05:54:55;;;;;;;;;;;;;;;6.34;90.34;100475.02;116085;1307;22878;-69
2022/11/09 05:57:42;;;;;;;;;;;;;;;6.38;90.23;100469.90;116065;1307;24416;-69
2022/11/09 06:00:33;;;;;;;;;;;;;;;6.43;90.38;100472.94;116062;1307;22443;-71
2022/11/09 06:03:22;;;;;;;;;;;;;;;6.45;90.10;100473.93;116044;1287;22476;-68
2022/11/09 06:06:11;;;;;;;;;;;;;;;6.46;90.29;100480.16;116063;1308;22464;-68
2022/11/09 06:08:58;;;;;;;;;;;;;;;6.45;90.02;100479.30;116076;1305;24415;-69
2022/11/09 06:11:45;;;;;;;;;;;;;;;6.40;89.87;100476.79;116073;1308;22588;-70
2022/11/09 06:14:37;;;;;;;;;;;;;;;6.37;90.21;100474.60;116092;1307;22543;-69
2022/11/09 06:17:32;;;;;;;;;;;;;;;6.35;90.34;100479.98;116085;1287;22447;-70
2022/11/09 06:20:19;;;;;;;;;;;;;;;6.37;90.11;100480.84;116085;1303;22401;-70
2022/11/09 06:23:10;;;;;;;;;;;;;;;6.43;90.35;100486.61;116065;1279;22443;-71
2022/11/09 06:26:05;;;;;;;;;;;;;;;6.51;90.57;100487.66;116083;1307;22455;-69
2022/11/09 06:28:55;;;;;;;;;;;;;;;6.57;90.40;100491.36;116022;1289;22535;-70
2022/11/09 06:31:43;;;;;;;;;;;;;;;6.66;90.94;100493.62;116054;1303;22408;-68
2022/11/09 06:34:32;;;;;;;;;;;;;;;6.76;90.95;100491.85;116048;1299;22393;-71
2022/11/09 06:37:20;;;;;;;;;;;;;;;6.80;90.50;100496.27;116036;1293;22528;-69
2022/11/09 06:40:09;;;;;;;;;;;;;;;6.81;90.53;100494.52;116081;1307;22461;-69
2022/11/09 06:42:59;;;;;;;;;;;;;;;6.83;90.50;100490.14;116056;1289;25400;-69
2022/11/09 06:45:48;;;;;;;;;;;;;;;6.88;90.44;100487.95;116053;1289;22482;-69
2022/11/09 06:48:35;;;;;;;;;;;;;;;7.00;90.47;100486.48;116042;1293;22528;-70
2022/11/09 06:51:26;;;;;;;;;;;;;;;7.10;90.29;100484.02;116075;1296;22558;-68
2022/11/09 06:54:17;;;;;;;;;;;;;;;7.22;90.60;100480.64;116054;1307;22583;-68
2022/11/09 06:57:07;;;;;;;;;;;;;;;7.40;90.77;100478.83;116068;1286;22454;-68
2022/11/09 06:59:59;;;;;;;;;;;;;;;7.63;90.57;100469.95;116082;1302;25352;-69
2022/11/09 07:02:50;;;;;;;;;;;;;;;7.81;89.88;100469.16;116024;1307;24270;-68
2022/11/09 07:05:41;;;;;;;;;;;;;;;7.85;89.39;100475.84;116073;1307;22452;-68
2022/11/09 07:08:30;;;;;;;;;;;;;;;7.86;89.22;100479.27;116016;1307;22446;-68
2022/11/09 07:11:19;;;;;;;;;;;;;;;7.86;89.12;100478.42;116052;1302;22413;-68
2022/11/09 07:14:12;;;;;;;;;;;;;;;7.87;89.05;100481.70;116013;1308;22459;-68
2022/11/09 07:17:02;;;;;;;;;;;;;;;7.88;88.73;100476.45;116007;1303;22492;-70
2022/11/09 07:19:52;;;;;;;;;;;;;;;7.91;88.44;100477.77;116014;1307;22431;-69
2022/11/09 07:22:41;;;;;;;;;;;;;;;7.96;88.41;100478.33;116021;1290;22545;-69
2022/11/09 07:25:28;;;;;;;;;;;;;;;8.03;88.54;100475.73;116070;1289;22463;-69
2022/11/09 07:28:16;;;;;;;;;;;;;;;8.07;88.06;100477.53;116023;1296;22464;-69
2022/11/09 07:31:03;;;;;;;;;;;;;;;8.09;88.26;100477.98;116091;1289;22449;-69
2022/11/09 07:33:50;;;;;;;;;;;;;;;8.16;88.36;100480.95;116047;1282;25267;-70
2022/11/09 07:36:38;;;;;;;;;;;;;;;8.23;88.17;100481.81;116062;1308;23503;-69
2022/11/09 07:39:29;;;;;;;;;;;;;;;8.30;88.04;100482.83;116037;1288;22474;-71
2022/11/09 07:42:21;;;;;;;;;;;;;;;8.42;87.84;100479.58;116040;1308;22393;-70
2022/11/09 07:45:12;;;;;;;;;;;;;;;8.50;87.28;100475.36;116105;1308;22445;-70
2022/11/09 07:48:01;;;;;;;;;;;;;;;8.56;87.13;100472.27;116055;1287;22458;-69
2022/11/09 07:50:49;;;;;;;;;;;;;;;8.63;87.00;100469.45;116146;1308;22411;-70
2022/11/09 07:53:39;;;;;;;;;;;;;;;8.70;87.15;100470.43;116025;1289;24257;-69
2022/11/09 07:56:31;;;;;;;;;;;;;;;8.80;86.98;100471.39;116096;1308;22460;-69
2022/11/09 07:59:23;;;;;;;;;;;;;;;8.95;86.87;100472.52;116038;1306;25262;-69
2022/11/09 08:02:11;;;;;;;;;;;;;;;9.08;86.40;100469.67;116067;1307;24374;-70
2022/11/09 08:04:59;;;;;;;;;;;;;;;9.16;86.09;100473.45;116051;1287;22439;-70
2022/11/09 08:07:47;;;;;;;;;;;;;;;9.17;85.73;100475.84;116065;1281;22473;-68
2022/11/09 08:10:35;;;;;;;;;;;;;;;9.18;85.38;100471.82;116048;1307;22444;-69
2022/11/09 08:13:24;;;;;;;;;;;;;;;9.18;85.58;100468.15;116071;1290;22453;-68
2022/11/09 08:16:15;;;;;;;;;;;;;;;9.23;85.40;100470.98;116059;1307;22456;-68
2022/11/09 08:19:07;;;;;;;;;;;;;;;9.28;85.14;100469.77;116018;1300;22478;-70
2022/11/09 08:21:56;;;;;;;;;;;;;;;9.35;85.33;100465.02;116070;1292;22498;-69
2022/11/09 08:24:44;;;;;;;;;;;;;;;9.45;85.32;100461.04;116113;1299;22447;-69
2022/11/09 08:27:39;;;;;;;;;;;;;;;9.61;85.84;100458.78;116044;1307;22421;-70
2022/11/09 08:30:26;;;;;;;;;;;;;;;9.89;85.87;100456.45;116065;1293;22440;-71
2022/11/09 08:33:13;;;;;;;;;;;;;;;10.33;85.46;100457.20;116071;1307;22541;-70
2022/11/09 08:36:01;;;;;;;;;;;;;;;10.78;84.98;100457.52;116076;1306;22402;-70
2022/11/09 08:38:52;;;;;;;;;;;;;;;11.09;84.48;100451.09;116040;1300;22439;-71
2022/11/09 08:41:40;;;;;;;;;;;;;;;11.30;83.71;100444.32;116068;1307;23388;-71
2022/11/09 08:44:27;;;;;;;;;;;;;;;11.50;81.39;100448.07;116053;1307;22448;-71
2022/11/09 08:47:14;;;;;;;;;;;;;;;11.76;82.00;100447.16;116065;1296;25354;-70
2022/11/09 08:50:07;;;;;;;;;;;;;;;11.98;81.14;100445.58;116103;1293;22480;-71
2022/11/09 08:52:54;;;;;;;;;;;;;;;12.01;80.05;100441.61;116040;1296;22581;-71
2022/11/09 08:55:43;;;;;;;;;;;;;;;12.00;79.11;100438.86;116091;1292;24273;-69
2022/11/09 08:58:31;;;;;;;;;;;;;;;11.97;78.71;100443.18;115817;1281;379699;-69
2022/11/09 09:01:20;;;;;;;;;;;;;;;11.89;78.36;100448.74;116021;1309;25360;-71
2022/11/09 09:04:10;;;;;;;;;;;;;;;11.89;78.06;100447.34;116044;1289;25364;-70
2022/11/09 09:06:59;;;;;;;;;;;;;;;12.19;79.47;100441.86;116060;1301;22502;-70
2022/11/09 09:09:49;;;;;;;;;;;;;;;12.73;79.67;100437.52;116080;1293;22428;-71
2022/11/09 09:12:38;;;;;;;;;;;;;;;13.22;77.78;100446.09;116051;1290;22469;-72
2022/11/09 09:15:28;;;;;;;;;;;;;;;13.67;76.82;100439.90;116091;1293;23843;-69
2022/11/09 09:18:18;;;;;;;;;;;;;;;14.03;75.20;100442.68;116042;1308;25669;-71
2022/11/09 09:21:08;;;;;;;;;;;;;;;14.29;74.46;100445.17;116103;1309;24397;-71
2022/11/09 09:23:58;;;;;;;;;;;;;;;14.31;73.35;100451.02;116038;1308;22444;-72
2022/11/09 09:26:45;;;;;;;;;;;;;;;14.23;72.07;100453.90;116082;1301;22446;-71
2022/11/09 09:29:35;;;;;;;;;;;;;;;14.10;71.21;100452.48;116098;1278;22463;-72
2022/11/09 09:32:22;;;;;;;;;;;;;;;13.97;70.92;100451.37;116065;1296;22463;-71
2022/11/09 09:35:10;;;;;;;;;;;;;;;14.03;71.78;100452.98;116084;1300;25198;-73
2022/11/09 09:38:00;;;;;;;;;;;;;;;14.22;71.45;100450.48;116067;1308;22456;-72
2022/11/09 09:40:56;;;;;;;;;;;;;;;14.41;71.37;100449.98;116074;1287;22442;-71
2022/11/09 09:43:45;;;;;;;;;;;;;;;14.48;70.03;100452.80;116043;1308;22468;-71
2022/11/09 09:46:35;;;;;;;;;;;;;;;14.48;69.91;100449.83;115979;1308;24986;-72
2022/11/09 09:49:23;;;;;;;;;;;;;;;14.52;70.33;100451.88;116065;1299;22459;-70
2022/11/09 09:52:24;;;;;;;;;;;;;;;14.50;69.61;100448.31;116060;1296;22454;-72
2022/11/09 09:55:17;;;;;;;;;;;;;;;14.37;69.27;100448.08;116064;1309;22424;-70
2022/11/09 09:58:11;;;;;;;;;;;;;;;14.20;68.74;100449.31;116058;1293;25913;-72
2022/11/09 10:01:00;;;;;;;;;;;;;;;14.08;69.37;100452.25;116078;1293;22463;-70
2022/11/09 10:03:47;;;;;;;;;;;;;;;14.01;69.77;100456.80;116062;1302;22443;-71
2022/11/09 10:06:43;;;;;;;;;;;;;;;13.94;69.39;100453.09;116054;1292;22461;-70
2022/11/09 10:09:37;;;;;;;;;;;;;;;13.86;69.67;100452.48;116081;1296;22458;-71
2022/11/09 10:12:30;;;;;;;;;;;;;;;13.79;69.72;100452.48;116032;1300;22398;-69
2022/11/09 10:15:24;;;;;;;;;;;;;;;13.70;70.03;100454.84;116073;1309;22459;-69
2022/11/09 10:18:19;;;;;;;;;;;;;;;13.62;70.36;100455.24;116044;1299;22455;-69
2022/11/09 10:21:21;;;;;;;;;;;;;;;13.54;70.56;100450.89;116029;1307;22494;-70
2022/11/09 10:24:24;;;;;;;;;;;;;;;13.46;70.46;100449.70;116014;1292;22472;-70
2022/11/09 10:27:30;;;;;;;;;;;;;;;13.36;70.53;100442.28;116039;1284;22522;-71
2022/11/09 10:30:40;;;;;;;;;;;;;;;13.28;70.55;100442.15;116098;1309;22448;-72
2022/11/09 10:33:28;;;;;;;;;;;;;;;13.19;70.58;100440.84;116064;1300;22442;-70
2022/11/09 10:36:22;;;;;;;;;;;;;;;13.12;70.81;100437.60;116091;1294;22472;-70
2022/11/09 10:39:12;;;;;;;;;;;;;;;13.09;70.93;100437.78;116031;1307;22472;-70
2022/11/09 10:41:59;;;;;;;;;;;;;;;13.09;71.20;100439.02;116042;1293;22461;-69
2022/11/09 10:44:47;;;;;;;;;;;;;;;13.07;71.22;100444.36;116065;1309;22443;-69
2022/11/09 10:47:49;;;;;;;;;;;;;;;13.07;71.17;100438.56;116064;1299;22457;-70
2022/11/09 10:50:37;;;;;;;;;;;;;;;13.06;70.75;100437.38;116084;1290;22456;-71
2022/11/09 10:53:26;;;;;;;;;;;;;;;13.03;70.21;100433.52;116060;1287;22421;-71
2022/11/09 10:56:18;;;;;;;;;;;;;;;13.00;70.71;100429.27;116100;1309;22938;-71
2022/11/09 10:59:09;;;;;;;;;;;;;;;13.07;70.70;100424.77;116079;1309;22455;-70
2022/11/09 11:01:56;;;;;;;;;;;;;;;13.12;70.78;100422.73;116106;1309;22462;-70
2022/11/09 11:04:43;;;;;;;;;;;;;;;13.19;70.89;100426.09;116078;1287;22513;-70
2022/11/09 11:07:30;;;;;;;;;;;;;;;13.23;70.61;100433.31;116042;1300;22726;-71
2022/11/09 11:10:21;;;;;;;;;;;;;;;13.20;69.97;100428.31;116082;1293;22443;-70
2022/11/09 11:13:29;;;;;;;;;;;;;;;13.16;69.77;100427.27;116061;1309;22521;-70
2022/11/09 11:16:28;;;;;;;;;;;;;;;13.09;70.03;100427.80;116097;1300;22447;-71
2022/11/09 11:19:40;;;;;;;;;;;;;;;13.06;70.30;100429.15;116116;1305;22554;-71
2022/11/09 11:22:30;;;;;;;;;;;;;;;13.05;70.30;100420.12;116066;1296;22450;-69
2022/11/09 11:25:20;;;;;;;;;;;;;;;13.04;70.46;100420.50;116083;1309;22432;-71
2022/11/09 11:28:15;;;;;;;;;;;;;;;13.05;70.38;100420.48;116065;1309;22472;-70
2022/11/09 11:31:05;;;;;;;;;;;;;;;13.04;70.71;100421.90;116136;1295;22395;-70
2022/11/09 11:33:55;;;;;;;;;;;;;;;13.08;70.98;100423.48;116119;1289;24396;-71
2022/11/09 11:36:51;;;;;;;;;;;;;;;13.11;71.01;100417.38;116091;1290;22465;-71
2022/11/09 11:39:48;;;;;;;;;;;;;;;13.12;70.91;100413.27;116105;1297;25236;-71
2022/11/09 11:43:02;;;;;;;;;;;;;;;13.07;70.60;100416.33;116012;1307;22586;-71
2022/11/09 11:45:52;;;;;;;;;;;;;;;13.07;70.68;100424.94;116088;1287;22474;-70
2022/11/09 11:49:01;;;;;;;;;;;;;;;13.11;70.68;100425.43;116082;1293;22447;-70
2022/11/09 11:51:53;;;;;;;;;;;;;;;13.16;70.92;100432.34;116102;1299;22444;-70
2022/11/09 11:54:48;;;;;;;;;;;;;;;13.20;70.92;100434.46;116082;1298;23999;-70
2022/11/09 11:57:37;;;;;;;;;;;;;;;13.22;70.70;100435.98;116061;1309;22463;-71
2022/11/09 12:00:25;;;;;;;;;;;;;;;13.22;70.72;100433.16;116035;1308;24247;-71
2022/11/09 12:03:26;;;;;;;;;;;;;;;13.23;70.80;100431.55;116038;1293;22450;-70
2022/11/09 12:06:36;;;;;;;;;;;;;;;13.23;70.79;100428.22;116103;1286;22588;-71
2022/11/09 12:09:45;;;;;;;;;;;;;;;13.20;70.72;100429.55;116100;1307;22697;-70
2022/11/09 12:12:41;;;;;;;;;;;;;;;13.18;70.45;100425.06;116068;1307;22467;-73
2022/11/09 12:15:37;;;;;;;;;;;;;;;13.16;70.44;100420.44;116027;1292;22447;-70
2022/11/09 12:18:33;;;;;;;;;;;;;;;13.18;70.56;100415.42;116060;1309;22445;-70
2022/11/09 12:21:26;;;;;;;;;;;;;;;13.17;70.20;100411.27;116084;1291;22458;-71
2022/11/09 12:24:22;;;;;;;;;;;;;;;13.13;70.00;100411.83;116093;1303;22447;-72
2022/11/09 12:27:25;;;;;;;;;;;;;;;13.08;70.11;100408.77;116055;1290;22410;-72
2022/11/09 12:30:24;;;;;;;;;;;;;;;13.05;70.23;100404.86;116098;1309;25353;-71
2022/11/09 12:33:17;;;;;;;;;;;;;;;13.03;70.00;100402.50;116038;1289;22467;-70
2022/11/09 12:36:06;;;;;;;;;;;;;;;13.01;70.07;100401.92;116109;1296;22455;-70
2022/11/09 12:39:01;;;;;;;;;;;;;;;12.97;70.33;100406.30;116076;1307;24253;-70
2022/11/09 12:41:50;;;;;;;;;;;;;;;12.95;70.27;100405.55;116113;1289;22458;-71
2022/11/09 12:44:42;;;;;;;;;;;;;;;12.90;70.15;100406.09;116090;1286;22443;-70
2022/11/09 12:47:31;;;;;;;;;;;;;;;12.87;70.19;100406.41;116058;1309;24271;-71
2022/11/09 12:50:22;;;;;;;;;;;;;;;12.84;70.21;100406.73;116105;1287;22430;-73
2022/11/09 12:53:10;;;;;;;;;;;;;;;12.82;70.32;100407.19;116038;1309;22422;-70
2022/11/09 12:56:00;;;;;;;;;;;;;;;12.79;70.29;100410.81;116077;1307;22447;-69
2022/11/09 12:58:47;;;;;;;;;;;;;;;12.78;70.26;100412.95;116039;1290;22451;-70
2022/11/09 13:01:50;;;;;;;;;;;;;;;12.81;70.57;100415.98;116066;1303;22538;-70
2022/11/09 13:04:38;;;;;;;;;;;;;;;12.88;70.73;100423.50;116072;1309;22511;-71
2022/11/09 13:07:50;;;;;;;;;;;;;;;12.93;70.60;100427.50;116017;1308;22481;-71
2022/11/09 13:10:42;;;;;;;;;;;;;;;12.95;70.70;100423.56;116071;1301;22520;-70
2022/11/09 13:13:34;;;;;;;;;;;;;;;12.94;70.68;100418.88;116053;1290;25248;-70
2022/11/09 13:16:37;;;;;;;;;;;;;;;12.93;70.62;100421.05;116099;1290;22459;-70
2022/11/09 13:19:55;;;;;;;;;;;;;;;12.90;70.61;100426.04;116067;1309;22458;-70
2022/11/09 13:23:01;;;;;;;;;;;;;;;12.85;70.47;100421.75;116073;1296;22454;-68
2022/11/09 13:25:51;;;;;;;;;;;;;;;12.79;70.69;100422.89;116097;1289;22464;-70
2022/11/09 13:29:11;;;;;;;;;;;;;;;12.73;70.74;100420.55;116025;1296;22446;-70
2022/11/09 13:32:23;;;;;;;;;;;;;;;12.64;70.71;100423.93;116006;1292;24248;-72
2022/11/09 13:35:26;;;;;;;;;;;;;;;12.57;70.99;100422.00;116087;1289;24630;-69
2022/11/09 13:38:18;;;;;;;;;;;;;;;12.51;70.93;100417.89;116072;1286;22458;-70
2022/11/09 13:41:26;;;;;;;;;;;;;;;12.43;70.90;100415.09;116060;1309;22546;-69
2022/11/09 13:44:30;;;;;;;;;;;;;;;12.37;71.26;100415.73;116079;1309;22460;-70
2022/11/09 13:47:25;;;;;;;;;;;;;;;12.31;71.26;100423.48;116032;1307;22464;-70
2022/11/09 13:50:19;;;;;;;;;;;;;;;12.25;71.48;100424.30;116076;1307;22446;-70
2022/11/09 13:53:25;;;;;;;;;;;;;;;12.19;71.79;100423.52;116023;1305;22421;-69
2022/11/09 13:56:19;;;;;;;;;;;;;;;12.12;71.85;100425.19;116086;1296;22440;-69
2022/11/09 13:59:13;;;;;;;;;;;;;;;12.07;72.00;100422.80;116025;1299;22487;-70
2022/11/09 14:02:02;;;;;;;;;;;;;;;12.01;72.22;100424.63;116052;1279;22456;-71
2022/11/09 14:04:49;;;;;;;;;;;;;;;11.96;72.45;100428.52;116077;1289;22469;-68
2022/11/09 14:07:36;;;;;;;;;;;;;;;11.93;72.59;100431.48;116050;1292;22903;-69
2022/11/09 14:10:29;;;;;;;;;;;;;;;11.93;72.73;100433.05;116067;1280;22385;-72
2022/11/09 14:13:39;;;;;;;;;;;;;;;11.95;72.94;100436.27;116006;1298;22426;-71
2022/11/09 14:16:30;;;;;;;;;;;;;;;12.01;73.01;100432.14;115754;1307;23859;-68
2022/11/09 14:19:26;;;;;;;;;;;;;;;12.05;73.02;100431.13;116076;1300;22511;-70
2022/11/09 14:22:20;;;;;;;;;;;;;;;12.06;72.82;100438.58;116049;1309;22418;-69
2022/11/09 14:25:15;;;;;;;;;;;;;;;12.05;72.89;100448.77;116101;1293;25277;-70
2022/11/09 14:28:02;;;;;;;;;;;;;;;12.03;72.93;100452.55;116042;1287;25019;-69
2022/11/09 14:30:51;;;;;;;;;;;;;;;11.98;73.06;100461.13;116084;1309;22489;-70
2022/11/09 14:33:41;;;;;;;;;;;;;;;11.92;73.04;100462.27;116012;1309;22396;-70
2022/11/09 14:36:31;;;;;;;;;;;;;;;11.84;73.17;100457.86;116103;1309;22445;-69